El-djazair II — 7TBR — position and weather

sailwx.info

Track history (hours):
 
Tides and Currents Weather Stations Pressure Air Temp Water Temp Dewpoint Dewpoint Depression Visibility Wind Speed Wind Dir Waves Ship Positions

El-djazair II

Last reported at 2017-Feb-17 23:17 UTC. Time now 2017-Feb-21 19:07 UTC.
Position N 37°35' W 000°24'.

Length 146 m; draft 6.3 m.

Type: Passenger vessel. MMSI: 605026190.

Date/timePositionNaut miles runAvg speedWind from/ knotsBaromVisibWave heightAir tempDewpointWater temp
2017-Feb-17 23:17N 37°35' W 000°24'25 1.4
2017-Feb-17 05:27N 37°60' W 000°18'1515.0
2017-Feb-17 04:28N 37°45' W 000°21'1818.8
2017-Feb-17 03:29N 37°27' W 000°24'125 5.2
2017-Feb-16 03:25N 38°41' E 001°43'2022.7
2017-Feb-16 02:33N 38°59' E 001°52'2222.1
2017-Feb-16 01:33N 39°20' E 002°03'2222.2
2017-Feb-16 00:33N 39°40' E 002°16'2222.3
2017-Feb-15 23:33N 39°59' E 002°30'2322.6
2017-Feb-15 22:33N 40°18' E 002°46'2221.9
2017-Feb-15 21:33N 40°37' E 003°01'2222.1
2017-Feb-15 20:33N 40°55' E 003°17'22 0.9
2017-Feb-14 18:33N 40°34' E 003°24'1413.7
2017-Feb-14 17:33N 40°26' E 003°10'1413.8
2017-Feb-14 16:33N 40°18' E 002°55'1413.5
2017-Feb-14 15:33N 40°10' E 002°41'1413.7
2017-Feb-14 14:33N 40°01' E 002°27'1413.5
2017-Feb-14 13:33N 39°48' E 002°19'1414.0
2017-Feb-14 12:33N 39°36' E 002°12'1414.1
2017-Feb-14 11:33N 39°22' E 002°07'1413.9
2017-Feb-14 10:33N 39°09' E 002°01'1313.5
2017-Feb-14 09:33N 38°57' E 001°54'1413.7
2017-Feb-14 08:32N 38°44' E 001°48'  
2017-Feb-10 22:31N 37°39' W 000°23'0 0.0
2017-Feb-10 03:33N 37°39' W 000°23'  
Track history (hours):
 
Tides and Currents Weather Stations Pressure Air Temp Water Temp Dewpoint Dewpoint Depression Visibility Wind Speed Wind Dir Waves Ship Positions

El-djazair II

Last reported at 2017-Feb-17 23:17 UTC. Time now 2017-Feb-21 19:07 UTC.
Position N 37°35' W 000°24'.

Length 146 m; draft 6.3 m.

Type: Passenger vessel. MMSI: 605026190.

Date/timePositionNaut miles runAvg speedWind from/ knotsBaromVisibWave heightAir tempDewpointWater temp
2017-Feb-17 23:17N 37°35' W 000°24'25 1.4
2017-Feb-17 05:27N 37°60' W 000°18'1515.0
2017-Feb-17 04:28N 37°45' W 000°21'1818.8
2017-Feb-17 03:29N 37°27' W 000°24'125 5.2
2017-Feb-16 03:25N 38°41' E 001°43'2022.7
2017-Feb-16 02:33N 38°59' E 001°52'2222.1
2017-Feb-16 01:33N 39°20' E 002°03'2222.2
2017-Feb-16 00:33N 39°40' E 002°16'2222.3
2017-Feb-15 23:33N 39°59' E 002°30'2322.6
2017-Feb-15 22:33N 40°18' E 002°46'2221.9
2017-Feb-15 21:33N 40°37' E 003°01'2222.1
2017-Feb-15 20:33N 40°55' E 003°17'22 0.9
2017-Feb-14 18:33N 40°34' E 003°24'1413.7
2017-Feb-14 17:33N 40°26' E 003°10'1413.8
2017-Feb-14 16:33N 40°18' E 002°55'1413.5
2017-Feb-14 15:33N 40°10' E 002°41'1413.7
2017-Feb-14 14:33N 40°01' E 002°27'1413.5
2017-Feb-14 13:33N 39°48' E 002°19'1414.0
2017-Feb-14 12:33N 39°36' E 002°12'1414.1
2017-Feb-14 11:33N 39°22' E 002°07'1413.9
2017-Feb-14 10:33N 39°09' E 002°01'1313.5
2017-Feb-14 09:33N 38°57' E 001°54'1413.7
2017-Feb-14 08:32N 38°44' E 001°48'  
2017-Feb-10 22:31N 37°39' W 000°23'0 0.0
2017-Feb-10 03:33N 37°39' W 000°23'  

Dump ship's entire track history